Time;durP1;ratioP1;P1;durP2;ratioP2;P2;SDS_P1;SDS_P2;PMS_P1;PMS_P2;Temp;Humidity;BMP_temperature;BMP_pressure;BME280_temperature;BME280_humidity;BME280_pressure;Samples;Min_cycle;Max_cycle;Signal;HPM_P1;HPM_P2
2022/05/28 00:00:29;;;;;;;12.85;3.00;;;;;;;9.12;78.30;102181.03;5110275;28;20043;-73
2022/05/28 00:02:54;;;;;;;10.50;2.60;;;;;;;9.07;78.75;102172.31;5098442;28;20055;-73
2022/05/28 00:05:20;;;;;;;9.45;3.00;;;;;;;9.03;79.02;102173.19;5092090;28;20046;-73
2022/05/28 00:07:45;;;;;;;13.15;3.83;;;;;;;8.93;78.68;102161.00;5091927;28;20039;-73
2022/05/28 00:10:15;;;;;;;8.48;2.83;;;;;;;8.95;78.82;102164.47;5096439;28;20027;-73
2022/05/28 00:12:41;;;;;;;11.18;3.17;;;;;;;8.93;79.24;102168.81;5092230;28;20028;-73
2022/05/28 00:15:07;;;;;;;12.98;3.10;;;;;;;8.89;79.36;102167.03;5092317;28;20024;-73
2022/05/28 00:17:33;;;;;;;8.98;3.10;;;;;;;8.85;79.58;102154.88;5090246;28;20024;-73
2022/05/28 00:19:59;;;;;;;11.00;3.00;;;;;;;8.91;79.31;102160.13;5110166;28;20027;-73
2022/05/28 00:22:24;;;;;;;13.88;4.20;;;;;;;8.83;79.18;102159.22;5111992;28;20482;-73
2022/05/28 00:24:49;;;;;;;8.90;3.20;;;;;;;8.81;79.35;102155.75;5111657;28;20194;-73
2022/05/28 00:27:15;;;;;;;13.73;3.22;;;;;;;8.77;80.16;102154.88;5112296;28;20020;-73
2022/05/28 00:29:40;;;;;;;8.82;3.10;;;;;;;8.85;80.84;102154.88;5107885;28;20547;-73
2022/05/28 00:32:06;;;;;;;9.10;3.50;;;;;;;8.88;80.79;102147.09;5110391;28;20031;-73
2022/05/28 00:34:31;;;;;;;11.98;3.47;;;;;;;8.87;80.63;102145.38;5111862;28;20058;-73
2022/05/28 00:36:57;;;;;;;15.07;3.70;;;;;;;9.02;80.75;102148.00;5111380;28;20023;-73
2022/05/28 00:39:22;;;;;;;11.02;3.33;;;;;;;9.08;80.79;102145.44;5110289;28;20031;-73
2022/05/28 00:41:47;;;;;;;15.40;4.07;;;;;;;9.13;81.08;102135.94;5109156;28;20030;-73
2022/05/28 00:44:13;;;;;;;13.23;3.58;;;;;;;9.30;80.87;102138.56;5110860;28;20035;-73
2022/05/28 00:46:41;;;;;;;12.20;3.70;;;;;;;9.41;80.45;102142.94;5111260;28;20024;-73
2022/05/28 00:49:13;;;;;;;11.05;3.13;;;;;;;9.44;80.31;102143.81;5110895;28;20413;-73
2022/05/28 00:51:41;;;;;;;11.40;4.22;;;;;;;9.43;79.75;102144.69;5111169;28;20404;-73
2022/05/28 00:54:08;;;;;;;12.18;3.33;;;;;;;9.37;80.46;102144.66;5108650;28;20075;-73
2022/05/28 00:56:34;;;;;;;12.73;3.58;;;;;;;9.36;81.01;102148.13;5111766;28;20024;-73
2022/05/28 00:59:00;;;;;;;11.80;3.72;;;;;;;9.32;81.18;102141.19;5109829;28;20383;-73
2022/05/28 01:01:27;;;;;;;10.27;3.50;;;;;;;9.28;80.58;102144.63;5111818;28;20035;-73
2022/05/28 01:04:01;;;;;;;13.07;4.13;;;;;;;9.20;80.58;102138.56;5109818;28;20085;-73
2022/05/28 01:06:42;;;;;;;17.38;4.10;;;;;;;9.07;81.06;102141.09;5112200;28;20028;-73
2022/05/28 01:09:16;;;;;;;10.75;4.00;;;;;;;8.99;81.50;102131.53;5114508;28;20047;-73
2022/05/28 01:12:01;;;;;;;16.67;4.30;;;;;;;8.94;81.35;102123.72;5114712;28;20063;-73
2022/05/28 01:14:39;;;;;;;13.95;4.20;;;;;;;8.90;80.81;102129.78;5114881;28;20055;-72
2022/05/28 01:17:21;;;;;;;13.02;3.80;;;;;;;8.86;81.24;102131.50;5116202;28;20038;-73
2022/05/28 01:19:55;;;;;;;18.75;4.70;;;;;;;8.78;82.25;102127.13;5112675;28;20383;-73
2022/05/28 01:22:26;;;;;;;20.50;5.25;;;;;;;8.76;81.97;102124.50;5113741;28;20046;-73
2022/05/28 01:25:03;;;;;;;11.57;4.53;;;;;;;8.76;82.91;102127.09;5115457;28;20024;-73
2022/05/28 01:27:37;;;;;;;20.00;4.28;;;;;;;8.73;82.23;102131.41;5111449;28;20027;-73
2022/05/28 01:30:07;;;;;;;15.07;4.00;;;;;;;8.74;82.50;102122.78;5113700;28;20372;-73
2022/05/28 01:32:34;;;;;;;12.80;4.28;;;;;;;8.68;82.86;102119.28;5095915;28;20361;-73
2022/05/28 01:35:04;;;;;;;14.00;4.20;;;;;;;8.67;82.60;102121.88;5094542;28;20024;-73
2022/05/28 01:37:30;;;;;;;13.60;4.30;;;;;;;8.66;83.36;102118.41;5095103;28;20067;-73
2022/05/28 01:39:57;;;;;;;13.27;4.18;;;;;;;8.61;83.57;102122.72;5105403;28;20023;-73
2022/05/28 01:42:24;;;;;;;14.10;5.05;;;;;;;8.56;83.50;102118.34;5113603;28;20034;-73
2022/05/28 01:44:50;;;;;;;17.05;5.13;;;;;;;8.53;83.92;102115.72;5115273;28;20026;-73
2022/05/28 01:47:16;;;;;;;15.98;4.57;;;;;;;8.49;83.89;102114.84;5115228;28;20099;-73
2022/05/28 01:49:43;;;;;;;13.40;4.82;;;;;;;8.43;84.26;102117.41;5112346;28;20109;-73
2022/05/28 01:52:10;;;;;;;13.35;5.05;;;;;;;8.40;84.80;102119.97;5101991;28;20020;-73
2022/05/28 01:54:39;;;;;;;13.13;4.35;;;;;;;8.37;84.35;102114.72;5094504;28;20047;-72
2022/05/28 01:57:06;;;;;;;15.35;4.47;;;;;;;8.43;85.07;102115.66;5094078;28;20020;-73
2022/05/28 01:59:34;;;;;;;17.15;4.95;;;;;;;8.40;84.51;102125.19;5099133;28;20024;-73
2022/05/28 02:02:04;;;;;;;15.55;4.85;;;;;;;8.35;84.84;102121.66;5112381;28;20024;-73
2022/05/28 02:04:31;;;;;;;16.30;5.43;;;;;;;8.34;85.15;102115.59;5114740;28;20019;-73
2022/05/28 02:06:57;;;;;;;11.95;4.40;;;;;;;8.33;85.54;102120.78;5115170;28;20022;-73
2022/05/28 02:09:26;;;;;;;15.48;5.22;;;;;;;8.34;85.38;102122.53;5109734;27;20422;-73
2022/05/28 02:12:29;;;;;;;12.68;5.00;;;;;;;8.40;84.96;102130.38;5113617;28;20089;-73
2022/05/28 02:15:24;;;;;;;14.70;4.68;;;;;;;8.38;84.55;102119.13;5089836;28;20491;-73
2022/05/28 02:18:17;;;;;;;14.85;4.90;;;;;;;8.30;85.28;102123.34;5112693;28;20024;-73
2022/05/28 02:21:04;;;;;;;12.32;4.20;;;;;;;8.23;85.97;102125.03;5114294;28;20414;-72
2022/05/28 02:23:49;;;;;;;17.40;4.93;;;;;;;8.23;86.52;102119.84;5102528;28;20066;-73
2022/05/28 02:26:22;;;;;;;11.70;4.93;;;;;;;8.20;86.45;102117.22;5113990;28;20076;-73
2022/05/28 02:28:48;;;;;;;14.25;5.00;;;;;;;8.14;86.53;102115.47;5100797;28;20030;-73
2022/05/28 02:31:17;;;;;;;13.52;4.97;;;;;;;8.14;nan;102112.88;5107550;28;20475;-72
2022/05/28 02:33:43;;;;;;;15.45;5.20;;;;;;;8.10;87.44;102110.22;5113987;28;20073;-72
2022/05/28 02:36:10;;;;;;;13.52;4.93;;;;;;;8.13;87.25;102112.84;5114289;28;20014;-73
2022/05/28 02:38:36;;;;;;;17.27;4.72;;;;;;;8.08;87.85;102107.63;5113368;28;20028;-72
2022/05/28 02:41:01;;;;;;;18.65;4.85;;;;;;;8.07;87.78;102110.22;5099673;28;20036;-72
2022/05/28 02:43:27;;;;;;;13.82;4.90;;;;;;;8.05;87.96;102112.81;5110338;28;20411;-72
2022/05/28 02:45:52;;;;;;;11.05;4.90;;;;;;;8.03;88.12;102106.72;5113080;28;20059;-72
2022/05/28 02:48:18;;;;;;;18.20;4.78;;;;;;;8.07;88.66;102102.41;5113682;28;20085;-72
2022/05/28 02:50:43;;;;;;;18.30;4.82;;;;;;;8.02;88.72;102101.53;5113856;28;20019;-72
2022/05/28 02:53:11;;;;;;;13.32;5.15;;;;;;;8.03;88.79;102098.06;5109657;28;20015;-72
2022/05/28 02:55:37;;;;;;;14.10;4.85;;;;;;;8.01;88.91;102098.06;5113433;28;20411;-72
2022/05/28 02:58:02;;;;;;;11.65;5.00;;;;;;;7.93;89.32;102099.72;5098532;27;20043;-72
2022/05/28 03:00:27;;;;;;;10.18;4.78;;;;;;;7.91;89.43;102101.44;5108670;28;20024;-72
2022/05/28 03:02:52;;;;;;;16.02;5.20;;;;;;;7.89;89.14;102103.16;5111898;28;20044;-72
2022/05/28 03:05:22;;;;;;;14.60;4.43;;;;;;;7.88;89.72;102091.03;5110907;28;20077;-72
2022/05/28 03:07:47;;;;;;;17.45;4.65;;;;;;;7.83;89.45;102098.78;5112573;28;20035;-72
2022/05/28 03:10:13;;;;;;;12.65;4.80;;;;;;;7.81;89.91;102094.44;5113228;28;20042;-72
2022/05/28 03:12:39;;;;;;;17.08;4.65;;;;;;;7.72;90.41;102088.31;5108944;28;20424;-73
2022/05/28 03:15:06;;;;;;;21.17;5.15;;;;;;;7.70;90.66;102095.22;5113265;28;20084;-72
2022/05/28 03:17:31;;;;;;;15.65;4.90;;;;;;;7.75;91.12;102097.88;5113107;28;20020;-73
2022/05/28 03:19:59;;;;;;;11.50;4.72;;;;;;;7.72;90.54;102095.25;5112478;28;20024;-73
2022/05/28 03:22:24;;;;;;;13.48;4.80;;;;;;;7.72;91.13;102090.91;5100968;28;20356;-73
2022/05/28 03:24:49;;;;;;;17.58;5.10;;;;;;;7.72;91.52;102095.25;5112026;28;20030;-72
2022/05/28 03:27:14;;;;;;;16.73;5.38;;;;;;;7.70;91.44;102095.22;5110225;28;20072;-72
2022/05/28 03:29:40;;;;;;;12.63;5.53;;;;;;;7.73;91.85;102095.25;5112608;28;20031;-73
2022/05/28 03:32:05;;;;;;;17.17;4.70;;;;;;;7.68;91.77;102099.53;5104316;28;20073;-73
2022/05/28 03:34:31;;;;;;;13.10;5.03;;;;;;;7.68;91.97;102091.75;5111963;28;20031;-72
2022/05/28 03:36:56;;;;;;;15.05;4.90;;;;;;;7.66;91.88;102093.47;5112303;28;20039;-73
2022/05/28 03:39:21;;;;;;;18.70;5.30;;;;;;;7.69;91.99;102097.81;5112467;28;20540;-72
2022/05/28 03:41:47;;;;;;;14.15;4.18;;;;;;;7.65;91.72;102102.13;5108355;28;20066;-72
2022/05/28 03:44:12;;;;;;;19.05;5.03;;;;;;;7.62;92.03;102096.00;5112552;28;20027;-72
2022/05/28 03:46:38;;;;;;;11.80;5.10;;;;;;;7.63;92.78;102103.81;5111464;28;20031;-72
2022/05/28 03:49:07;;;;;;;17.05;5.22;;;;;;;7.57;92.89;102106.34;5111428;28;20398;-72
2022/05/28 03:51:32;;;;;;;18.27;4.95;;;;;;;7.60;92.49;102103.78;5109015;28;20118;-72
2022/05/28 03:53:58;;;;;;;13.65;4.80;;;;;;;7.64;92.71;102102.94;5111464;28;20134;-73
2022/05/28 03:56:28;;;;;;;13.15;4.88;;;;;;;7.67;93.33;102099.50;5110114;28;20019;-72
2022/05/28 03:58:53;;;;;;;14.75;4.78;;;;;;;7.58;93.63;102094.25;5112261;28;20080;-72
2022/05/28 04:01:18;;;;;;;14.00;4.82;;;;;;;7.67;93.86;102113.34;5112042;28;20023;-72
2022/05/28 04:03:44;;;;;;;11.13;4.57;;;;;;;7.68;93.51;102104.75;5109810;28;20491;-72
2022/05/28 04:06:10;;;;;;;15.75;4.70;;;;;;;7.75;93.77;102108.25;5111249;28;20028;-72
2022/05/28 04:08:36;;;;;;;13.98;5.55;;;;;;;7.76;93.67;102116.91;5109468;28;20074;-72
2022/05/28 04:11:01;;;;;;;13.15;4.70;;;;;;;7.78;93.59;102113.44;5111696;28;20063;-73
2022/05/28 04:13:26;;;;;;;13.27;4.90;;;;;;;7.86;93.59;102118.72;5109382;28;20055;-73
2022/05/28 04:15:52;;;;;;;11.88;5.05;;;;;;;7.88;93.68;102117.88;5111281;28;20027;-72
2022/05/28 04:18:17;;;;;;;13.07;4.53;;;;;;;7.88;94.11;102114.38;5097120;28;20361;-73
2022/05/28 04:20:42;;;;;;;11.57;4.55;;;;;;;7.96;94.11;102115.34;5112202;28;20028;-73
2022/05/28 04:23:08;;;;;;;13.90;4.60;;;;;;;8.00;94.76;102126.59;5109126;28;20089;-72
2022/05/28 04:25:33;;;;;;;11.45;4.53;;;;;;;8.00;94.35;102108.44;5111913;28;20491;-73
2022/05/28 04:27:58;;;;;;;15.55;4.85;;;;;;;8.05;94.26;102112.81;5109712;28;20084;-72
2022/05/28 04:30:24;;;;;;;15.93;4.68;;;;;;;8.17;93.87;102119.81;5103848;28;20087;-73
2022/05/28 04:32:49;;;;;;;15.07;4.45;;;;;;;8.23;94.50;102127.63;5104663;28;20045;-72
2022/05/28 04:35:15;;;;;;;8.73;4.13;;;;;;;8.26;94.37;102126.81;5111980;28;20046;-72
2022/05/28 04:37:40;;;;;;;7.93;4.38;;;;;;;8.29;94.45;102119.88;5110953;28;20023;-73
2022/05/28 04:40:07;;;;;;;16.13;6.03;;;;;;;8.36;94.95;102119.06;5110968;28;20027;-73
2022/05/28 04:42:32;;;;;;;12.23;4.13;;;;;;;8.44;95.25;102130.41;5109817;28;20031;-73
2022/05/28 04:44:57;;;;;;;19.92;5.40;;;;;;;8.51;94.92;102130.47;5115599;28;20054;-72
2022/05/28 04:47:23;;;;;;;12.45;4.15;;;;;;;8.60;95.08;102133.09;5110628;28;20024;-72
2022/05/28 04:49:48;;;;;;;16.55;4.60;;;;;;;8.61;95.13;102125.31;5115245;28;20399;-72
2022/05/28 04:52:14;;;;;;;15.52;4.05;;;;;;;8.71;95.27;102122.75;5114607;28;20106;-73
2022/05/28 04:54:39;;;;;;;14.57;4.57;;;;;;;8.77;94.05;102125.41;5115720;28;20043;-73
2022/05/28 04:57:04;;;;;;;14.52;4.90;;;;;;;8.85;95.19;102128.88;5106779;28;20471;-72
2022/05/28 04:59:30;;;;;;;14.70;4.13;;;;;;;8.91;95.33;102129.78;5108260;28;20028;-72
2022/05/28 05:01:55;;;;;;;13.82;4.93;;;;;;;8.99;95.72;102132.44;5116196;28;20015;-73
2022/05/28 05:04:20;;;;;;;11.93;4.00;;;;;;;9.04;95.40;102129.81;5114072;28;20032;-72
2022/05/28 05:06:45;;;;;;;19.65;4.28;;;;;;;9.10;95.38;102116.84;5111631;28;20375;-72
2022/05/28 05:09:11;;;;;;;12.20;4.20;;;;;;;9.19;95.03;102129.00;5115584;28;20113;-73
2022/05/28 05:11:36;;;;;;;18.08;3.92;;;;;;;9.35;94.47;102138.56;5113517;28;20451;-72
2022/05/28 05:14:01;;;;;;;15.25;3.65;;;;;;;9.46;95.35;102142.09;5115043;28;20027;-72
2022/05/28 05:16:27;;;;;;;14.93;3.22;;;;;;;9.59;95.63;102141.22;5115614;28;20028;-73
2022/05/28 05:18:52;;;;;;;11.05;3.22;;;;;;;9.74;95.46;102139.50;5114914;28;20083;-73
2022/05/28 05:21:17;;;;;;;17.05;3.70;;;;;;;9.85;94.17;102141.25;5113708;28;20516;-73
2022/05/28 05:23:43;;;;;;;11.02;3.33;;;;;;;9.92;94.21;102149.94;5100557;28;20027;-73
2022/05/28 05:26:14;;;;;;;13.05;3.92;;;;;;;9.99;94.08;102148.19;5113847;28;20024;-72
2022/05/28 05:28:40;;;;;;;9.32;2.78;;;;;;;10.02;92.98;102137.78;5115072;28;20036;-72
2022/05/28 05:31:05;;;;;;;12.63;3.10;;;;;;;10.12;92.57;102151.66;5105729;27;20479;-72
2022/05/28 05:33:30;;;;;;;8.73;2.80;;;;;;;10.17;92.64;102142.09;5111060;28;20031;-73
2022/05/28 05:35:58;;;;;;;13.77;3.28;;;;;;;10.24;92.74;102144.72;5115435;28;20019;-73
2022/05/28 05:38:23;;;;;;;8.82;2.72;;;;;;;10.35;91.21;102147.34;5115147;27;20020;-72
2022/05/28 05:40:51;;;;;;;12.30;2.85;;;;;;;10.43;91.77;102148.19;5112823;28;20395;-72
2022/05/28 05:43:17;;;;;;;13.02;2.92;;;;;;;10.49;90.56;102155.97;5111785;28;20039;-73
2022/05/28 05:45:42;;;;;;;8.90;2.67;;;;;;;10.55;88.21;102153.38;5114943;28;20023;-73
2022/05/28 05:48:08;;;;;;;13.88;2.90;;;;;;;10.64;89.51;102154.22;5114635;28;20019;-73
2022/05/28 05:50:33;;;;;;;9.80;2.60;;;;;;;10.72;89.90;102161.13;5112789;28;20494;-73
2022/05/28 05:52:58;;;;;;;11.77;2.50;;;;;;;10.75;88.60;102152.44;5109537;28;20102;-72
2022/05/28 05:55:24;;;;;;;11.40;2.80;;;;;;;10.83;87.11;102153.28;5113837;28;20105;-73
2022/05/28 05:57:49;;;;;;;6.35;1.85;;;;;;;10.92;86.51;102158.50;5114494;28;20031;-73
2022/05/28 06:00:15;;;;;;;6.93;1.65;;;;;;;11.04;86.78;102157.53;5110643;28;20031;-72
2022/05/28 06:02:40;;;;;;;12.07;2.50;;;;;;;11.19;86.09;102151.41;5110496;28;20076;-73
2022/05/28 06:05:06;;;;;;;11.00;1.63;;;;;;;11.27;82.33;102160.03;5107443;28;20361;-73
2022/05/28 06:07:32;;;;;;;7.63;1.88;;;;;;;11.32;83.31;102160.03;5114286;28;20542;-73
2022/05/28 06:09:57;;;;;;;6.43;1.50;;;;;;;11.48;83.85;102164.28;5105695;28;20028;-73
2022/05/28 06:12:22;;;;;;;7.07;1.60;;;;;;;11.70;80.78;102154.56;5112312;28;20068;-73
2022/05/28 06:14:47;;;;;;;6.28;1.45;;;;;;;11.98;81.37;102165.69;5113747;27;20135;-73
2022/05/28 06:17:13;;;;;;;8.60;1.75;;;;;;;12.09;80.83;102168.22;5113571;28;20459;-73
2022/05/28 06:19:38;;;;;;;6.97;1.77;;;;;;;12.15;77.81;102168.16;5110688;28;20027;-73
2022/05/28 06:22:03;;;;;;;8.73;2.00;;;;;;;12.24;76.69;102168.09;5112720;28;20450;-73
2022/05/28 06:24:29;;;;;;;6.78;1.40;;;;;;;12.16;76.77;102167.28;5112097;28;20040;-73
2022/05/28 06:26:59;;;;;;;7.80;1.73;;;;;;;12.12;78.17;102174.28;5110546;28;20030;-73
2022/05/28 06:29:25;;;;;;;7.15;1.38;;;;;;;12.17;78.49;102174.25;5113712;28;20387;-73
2022/05/28 06:31:50;;;;;;;6.78;1.48;;;;;;;12.24;75.87;102182.91;5100899;28;20039;-73
2022/05/28 06:34:15;;;;;;;5.45;1.30;;;;;;;12.16;76.49;102176.00;5101721;28;20051;-73
2022/05/28 06:36:41;;;;;;;5.57;1.70;;;;;;;12.22;72.61;102182.06;5111379;28;20031;-73
2022/05/28 06:39:06;;;;;;;7.60;1.27;;;;;;;12.16;73.16;102170.78;5114091;28;20058;-73
2022/05/28 06:41:31;;;;;;;10.50;1.58;;;;;;;12.18;70.64;102170.75;5110041;28;20032;-73
2022/05/28 06:43:57;;;;;;;7.32;1.65;;;;;;;12.31;73.26;102175.00;5102096;28;20441;-73
2022/05/28 06:46:22;;;;;;;10.25;1.48;;;;;;;12.38;73.23;102179.28;5113961;28;20023;-73
2022/05/28 06:48:47;;;;;;;4.00;1.15;;;;;;;12.31;72.17;102179.34;5113879;28;20026;-72
2022/05/28 06:51:13;;;;;;;9.95;1.92;;;;;;;12.23;74.24;102191.63;5103353;28;20039;-73
2022/05/28 06:53:48;;;;;;;5.85;1.42;;;;;;;12.23;73.80;102187.28;5112051;28;20490;-74
2022/05/28 06:56:15;;;;;;;13.20;1.60;;;;;;;12.38;71.07;102184.50;5113460;28;20475;-73
2022/05/28 06:58:41;;;;;;;5.10;1.02;;;;;;;12.48;69.43;102182.66;5113134;28;20023;-73
2022/05/28 07:01:07;;;;;;;7.75;1.73;;;;;;;12.53;69.24;102187.88;5110849;28;20436;-73
2022/05/28 07:03:34;;;;;;;4.85;1.13;;;;;;;12.50;68.57;102185.28;5107481;28;20024;-73
2022/05/28 07:05:59;;;;;;;5.07;0.95;;;;;;;12.53;68.58;102190.50;5099550;28;20102;-73
2022/05/28 07:08:25;;;;;;;8.88;1.55;;;;;;;12.68;68.48;102186.81;5113363;28;20032;-73
2022/05/28 07:10:53;;;;;;;7.35;1.40;;;;;;;12.93;66.43;102192.66;5105750;28;20039;-73
2022/05/28 07:13:20;;;;;;;5.35;1.30;;;;;;;12.93;64.74;102192.66;5111591;28;20428;-73
2022/05/28 07:15:46;;;;;;;8.15;1.90;;;;;;;12.91;64.34;102197.91;5109266;28;20031;-73
2022/05/28 07:18:12;;;;;;;4.43;1.52;;;;;;;12.94;65.13;102192.63;5109676;28;20023;-73
2022/05/28 07:20:38;;;;;;;5.78;1.50;;;;;;;13.04;65.15;102193.38;5112402;28;20471;-73
2022/05/28 07:23:24;;;;;;;7.63;1.50;;;;;;;13.12;66.96;102188.94;5106149;28;20108;-73
2022/05/28 07:25:58;;;;;;;5.88;1.55;;;;;;;12.98;65.73;102198.69;5102110;28;20475;-73
2022/05/28 07:28:27;;;;;;;11.45;1.58;;;;;;;12.92;63.80;102197.03;5107821;28;20124;-73
2022/05/28 07:30:57;;;;;;;8.75;1.45;;;;;;;12.93;64.15;102196.16;5099028;28;20020;-73
2022/05/28 07:33:25;;;;;;;4.50;1.52;;;;;;;12.85;63.01;102191.00;5092282;28;20036;-72
2022/05/28 07:35:51;;;;;;;8.43;1.33;;;;;;;12.71;65.17;102194.66;5101956;28;20043;-72
2022/05/28 07:38:16;;;;;;;5.88;1.35;;;;;;;12.57;65.66;102187.81;5110955;28;20023;-72
2022/05/28 07:40:41;;;;;;;2.78;1.15;;;;;;;12.41;64.64;102194.94;5112039;28;20118;-72
2022/05/28 07:43:08;;;;;;;5.22;1.13;;;;;;;12.31;65.64;102198.53;5096104;28;20032;-72
2022/05/28 07:45:40;;;;;;;5.15;1.20;;;;;;;12.28;67.29;102188.09;5100901;28;20027;-72
2022/05/28 07:48:06;;;;;;;10.13;1.52;;;;;;;12.52;66.69;102201.81;5100185;28;20038;-72
2022/05/28 07:50:31;;;;;;;5.95;1.00;;;;;;;12.81;65.19;102197.13;5111671;28;20053;-72
2022/05/28 07:52:57;;;;;;;4.93;1.20;;;;;;;13.36;63.13;102195.63;5112031;28;20436;-72
2022/05/28 07:55:22;;;;;;;5.50;1.30;;;;;;;13.97;60.31;102191.25;5107557;28;20047;-72
2022/05/28 07:57:48;;;;;;;5.75;1.70;;;;;;;14.37;59.93;102180.06;5105448;28;20134;-72
2022/05/28 08:00:15;;;;;;;6.97;1.20;;;;;;;14.69;59.66;102180.38;5091589;28;20111;-72
2022/05/28 08:02:40;;;;;;;6.90;1.60;;;;;;;14.58;59.05;102186.72;5105968;28;20460;-72
2022/05/28 08:05:06;;;;;;;4.65;1.60;;;;;;;14.34;58.72;102188.00;5108659;28;20111;-72
2022/05/28 08:07:31;;;;;;;7.20;1.48;;;;;;;14.43;60.03;102190.47;5109984;28;20027;-72
2022/05/28 08:09:58;;;;;;;6.10;1.73;;;;;;;14.52;59.54;102183.31;5108164;28;20028;-74
2022/05/28 08:12:23;;;;;;;7.00;1.67;;;;;;;14.55;58.80;102187.66;5112319;28;20032;-73
2022/05/28 08:14:49;;;;;;;4.30;1.10;;;;;;;14.43;59.07;102174.72;5096822;28;20077;-73
2022/05/28 08:17:15;;;;;;;3.58;1.00;;;;;;;14.14;59.13;102180.47;5106775;28;20540;-73
2022/05/28 08:19:41;;;;;;;4.65;1.40;;;;;;;13.68;60.23;102192.56;5108880;28;20741;-73
2022/05/28 08:24:50;;;;;;;;;;;;;;;13.16;62.28;102182.78;5112801;28;20527;-77
2022/05/28 08:27:15;;;;;;;9.57;1.67;;;;;;;12.98;63.04;102188.22;5112148;28;19936;-77
2022/05/28 08:29:40;;;;;;;5.93;1.40;;;;;;;13.08;62.53;102182.03;5111280;28;20043;-72
2022/05/28 08:32:06;;;;;;;8.35;1.30;;;;;;;13.43;61.73;102188.56;5106608;28;20356;-72
2022/05/28 08:34:32;;;;;;;4.53;1.20;;;;;;;13.75;61.05;102178.47;5107373;28;20039;-73
2022/05/28 08:36:57;;;;;;;6.20;1.50;;;;;;;14.05;57.76;102168.38;5109828;28;20024;-73
2022/05/28 08:39:22;;;;;;;7.68;1.27;;;;;;;14.35;55.57;102153.00;5111657;28;20478;-72
2022/05/28 08:41:58;;;;;;;6.82;1.25;;;;;;;14.92;56.84;102174.66;5111880;28;20070;-73
2022/05/28 08:44:29;;;;;;;9.05;1.50;;;;;;;15.38;57.03;102171.06;5110966;28;20061;-73
2022/05/28 08:47:01;;;;;;;7.88;1.45;;;;;;;15.68;51.47;102163.41;5112076;28;20031;-73
2022/05/28 08:49:28;;;;;;;8.48;1.73;;;;;;;15.83;52.64;102157.78;5108180;28;20445;-72
2022/05/28 08:52:03;;;;;;;5.97;1.20;;;;;;;15.96;51.11;102170.59;5100944;28;20081;-72
2022/05/28 08:54:35;;;;;;;4.65;1.23;;;;;;;16.22;52.43;102175.22;5098143;28;20044;-72
2022/05/28 08:57:09;;;;;;;9.13;1.10;;;;;;;16.38;51.39;102168.63;5100090;28;20024;-72
2022/05/28 08:59:50;;;;;;;7.25;1.27;;;;;;;16.60;52.40;102167.16;5107343;28;20486;-72
2022/05/28 09:02:26;;;;;;;6.40;1.27;;;;;;;16.87;48.83;102167.31;5110215;28;20451;-72
2022/05/28 09:04:54;;;;;;;10.25;1.20;;;;;;;16.76;47.36;102166.78;5110838;28;20019;-72
2022/05/28 09:07:19;;;;;;;7.97;1.58;;;;;;;16.53;47.28;102184.03;5110777;28;20118;-72
2022/05/28 09:09:47;;;;;;;8.32;1.42;;;;;;;16.32;51.37;102169.69;5111525;28;20050;-72
2022/05/28 09:12:30;;;;;;;5.75;1.33;;;;;;;15.93;52.88;102175.97;5097283;28;20028;-72
2022/05/28 09:14:56;;;;;;;;;;;;;;;15.72;54.83;102167.69;5109547;28;20019;-72
2022/05/28 09:17:27;;;;;;;7.55;1.48;;;;;;;15.40;54.94;102179.78;5111400;28;19980;-73
2022/05/28 09:19:58;;;;;;;7.57;1.50;;;;;;;15.12;54.03;102181.28;5110566;28;20032;-72
2022/05/28 09:22:24;;;;;;;7.20;1.38;;;;;;;14.75;56.44;102177.63;5111513;28;20459;-72
2022/05/28 09:24:50;;;;;;;5.90;1.50;;;;;;;14.86;58.36;102171.31;5111289;28;20108;-72
2022/05/28 09:27:36;;;;;;;13.10;1.88;;;;;;;15.14;57.60;102175.09;5111954;28;20114;-72
2022/05/28 09:30:04;;;;;;;6.93;1.52;;;;;;;15.31;55.71;102174.72;5115496;28;20111;-72
2022/05/28 09:32:51;;;;;;;5.95;1.58;;;;;;;15.55;53.67;102170.66;5099849;28;20030;-72
2022/05/28 09:35:38;;;;;;;6.53;2.13;;;;;;;15.90;54.08;102159.34;5115424;28;20050;-72
2022/05/28 09:38:11;;;;;;;4.80;1.27;;;;;;;16.44;51.79;102162.34;5103400;28;20034;-72
2022/05/28 09:40:53;;;;;;;6.80;1.52;;;;;;;17.14;51.87;102154.28;5114159;28;20030;-73
2022/05/28 09:43:21;;;;;;;8.13;1.33;;;;;;;17.30;51.04;102158.16;5115385;28;20077;-72
2022/05/28 09:46:03;;;;;;;5.68;1.88;;;;;;;17.35;52.40;102156.22;5099690;27;20019;-73
2022/05/28 09:48:29;;;;;;;3.95;1.35;;;;;;;17.31;50.08;102165.16;5107909;28;20062;-73
2022/05/28 09:50:55;;;;;;;6.32;1.35;;;;;;;17.02;49.41;102171.28;5100190;28;20093;-72
2022/05/28 09:56:38;;;;;;;4.57;1.13;;;;;;;16.74;48.22;102164.16;5111229;28;20090;-73
2022/05/28 09:59:21;;;;;;;8.52;1.30;;;;;;;17.02;47.35;102145.81;5112937;28;20031;-72
2022/05/28 10:01:57;;;;;;;8.25;1.45;;;;;;;17.11;48.24;102152.59;5101739;28;20042;-77
2022/05/28 10:04:29;;;;;;;5.57;1.35;;;;;;;17.07;47.73;102154.44;5112860;28;20071;-77
2022/05/28 10:06:56;;;;;;;9.32;1.45;;;;;;;17.08;47.61;102148.25;5111351;28;20031;-77
2022/05/28 10:09:27;;;;;;;9.68;1.55;;;;;;;17.26;49.89;102149.47;5106707;28;20074;-77
2022/05/28 10:12:01;;;;;;;4.70;1.20;;;;;;;17.54;50.41;102141.56;5105377;28;20043;-79
2022/05/28 10:14:30;;;;;;;5.35;1.60;;;;;;;17.99;47.87;102135.72;5113808;28;20039;-77
2022/05/28 10:17:02;;;;;;;5.68;1.50;;;;;;;18.19;45.29;102140.31;5107221;28;20088;-77
2022/05/28 10:19:29;;;;;;;5.10;1.30;;;;;;;18.02;45.13;102153.25;5107892;28;20414;-77
2022/05/28 10:21:57;;;;;;;4.30;1.70;;;;;;;17.38;45.19;102145.59;5107974;28;20045;-77
2022/05/28 10:24:25;;;;;;;8.50;2.00;;;;;;;16.76;48.04;102153.59;5109552;28;20098;-77
2022/05/28 10:26:58;;;;;;;6.70;1.23;;;;;;;16.66;51.32;102157.38;5113244;28;20023;-77
2022/05/28 10:29:30;;;;;;;8.82;1.75;;;;;;;16.99;50.02;102150.31;5113746;28;20024;-78
2022/05/28 10:31:58;;;;;;;6.70;1.35;;;;;;;17.53;46.81;102139.84;5103111;27;20047;-77
2022/05/28 10:34:36;;;;;;;4.43;1.52;;;;;;;17.96;44.82;102143.75;5110904;28;20361;-77
2022/05/28 10:37:12;;;;;;;7.75;2.00;;;;;;;18.31;43.20;102136.41;5112618;28;20075;-77
2022/05/28 10:39:38;;;;;;;5.53;1.40;;;;;;;18.16;42.77;102134.28;5105342;28;20069;-77
2022/05/28 10:42:07;;;;;;;6.13;1.40;;;;;;;17.67;45.20;102131.47;5105561;28;20020;-77
2022/05/28 10:44:33;;;;;;;6.97;1.17;;;;;;;17.23;44.08;102140.78;5094970;28;20119;-76
2022/05/28 10:47:14;;;;;;;4.50;1.25;;;;;;;16.66;45.18;102154.75;5105008;28;20111;-76
2022/05/28 10:50:22;;;;;;;3.78;1.38;;;;;;;16.90;43.75;102138.25;5098532;28;20425;-76
2022/05/28 10:53:08;;;;;;;4.70;1.30;;;;;;;16.98;43.52;102141.53;5100700;28;20399;-76
2022/05/28 10:55:55;;;;;;;6.18;1.00;;;;;;;17.52;44.29;102148.66;5093979;28;20052;-77
2022/05/28 10:58:38;;;;;;;4.22;1.17;;;;;;;18.04;41.01;102132.06;5100818;28;20815;-77
2022/05/28 11:01:36;;;;;;;3.80;1.20;;;;;;;18.10;41.93;102131.84;5096093;28;20074;-78
2022/05/28 11:04:34;;;;;;;6.13;1.23;;;;;;;18.05;43.71;102125.84;5039096;28;20399;-77
2022/05/28 11:07:17;;;;;;;4.65;1.30;;;;;;;17.86;43.35;102134.41;5099289;28;20071;-77
2022/05/28 11:10:12;;;;;;;5.75;1.27;;;;;;;17.51;42.32;102138.16;5092758;28;20056;-77
2022/05/28 11:12:37;;;;;;;5.70;1.48;;;;;;;18.01;44.12;102130.38;5092308;28;20031;-77
2022/05/28 11:15:35;;;;;;;4.30;1.40;;;;;;;18.68;41.47;102127.13;5095738;28;20036;-78
2022/05/28 11:18:17;;;;;;;5.82;1.33;;;;;;;19.02;41.42;102131.16;5097373;28;20274;-78
2022/05/28 11:21:21;;;;;;;4.63;1.30;;;;;;;18.85;42.01;102131.81;5097882;28;20035;-77
2022/05/28 11:24:03;;;;;;;5.18;1.58;;;;;;;18.90;43.97;102127.22;5087485;28;20032;-77
2022/05/28 11:27:00;;;;;;;5.20;1.20;;;;;;;19.05;42.05;102131.06;5103389;28;20032;-78
2022/05/28 11:29:33;;;;;;;2.55;1.05;;;;;;;19.11;37.38;102118.47;5097655;28;20100;-78
2022/05/28 11:32:15;;;;;;;5.35;1.05;;;;;;;19.14;35.72;102114.84;5091363;28;20035;-77
2022/05/28 11:34:46;;;;;;;5.22;1.23;;;;;;;19.22;37.99;102122.47;5107294;28;20085;-78
2022/05/28 11:37:29;;;;;;;3.45;0.93;;;;;;;19.53;37.92;102111.53;5107337;28;20023;-77
2022/05/28 11:40:04;;;;;;;3.90;1.13;;;;;;;19.64;39.27;102109.34;5099326;28;20051;-81
2022/05/28 11:42:45;;;;;;;3.13;1.02;;;;;;;20.06;37.71;102108.44;5108467;28;20039;-78